Time;durP1;ratioP1;P1;durP2;ratioP2;P2;SDS_P1;SDS_P2;PMS_P1;PMS_P2;Temp;Humidity;BMP_temperature;BMP_pressure;BME280_temperature;BME280_humidity;BME280_pressure;Samples;Min_cycle;Max_cycle;Signal;HPM_P1;HPM_P2
2022/09/12 00:00:45;;;;;;;13.40;8.75;;;410.50;2355.20;;;;;;5080112;28;20090;-84
2022/09/12 00:03:11;;;;;;;10.73;8.68;;;410.50;2355.20;;;;;;5046741;28;20041;-84
2022/09/12 00:05:44;;;;;;;10.02;8.02;;;410.50;2355.20;;;;;;5048444;28;20033;-84
2022/09/12 00:08:10;;;;;;;13.18;9.38;;;435.20;2355.20;;;;;;5051366;28;20032;-84
2022/09/12 00:10:44;;;;;;;10.00;8.10;;;435.20;2355.20;;;;;;5053412;28;20371;-82
2022/09/12 00:13:11;;;;;;;11.45;8.55;;;435.20;2355.20;;;;;;5050917;28;20032;-83
2022/09/12 00:15:41;;;;;;;10.55;8.35;;;435.20;2355.20;;;;;;5051341;28;20029;-83
2022/09/12 00:18:13;;;;;;;13.23;7.60;;;410.50;2355.20;;;;;;5050864;28;20024;-84
2022/09/12 00:20:46;;;;;;;12.35;8.23;;;435.50;2355.20;;;;;;5051669;28;20067;-84
2022/09/12 00:23:13;;;;;;;13.05;8.32;;;410.30;2355.20;;;;;;5048489;28;20037;-84
2022/09/12 00:25:46;;;;;;;10.50;6.60;;;410.40;2355.20;;;;;;5048723;28;20036;-82
2022/09/12 00:28:12;;;;;;;11.07;7.38;;;410.40;2355.20;;;;;;5045529;28;20505;-83
2022/09/12 00:30:47;;;;;;;16.42;7.75;;;410.20;2355.20;;;;;;5057828;28;20053;-84
2022/09/12 00:33:14;;;;;;;10.95;6.95;;;410.30;2355.20;;;;;;5060392;28;20024;-83
2022/09/12 00:35:45;;;;;;;11.70;7.40;;;410.20;2355.20;;;;;;5057341;28;20028;-84
2022/09/12 00:38:16;;;;;;;10.20;6.78;;;410.20;2355.20;;;;;;5055860;28;20565;-84
2022/09/12 00:40:42;;;;;;;12.45;7.53;;;410.30;2355.20;;;;;;5049415;28;20070;-83
2022/09/12 00:43:39;;;;;;;16.65;7.88;;;410.30;2355.20;;;;;;5044629;28;20161;-84
2022/09/12 00:46:23;;;;;;;13.38;7.22;;;410.30;2355.20;;;;;;5036677;28;20063;-83
2022/09/12 00:48:55;;;;;;;13.43;7.80;;;410.30;2355.20;;;;;;5038201;28;20048;-83
2022/09/12 00:51:21;;;;;;;9.77;7.93;;;410.30;2355.20;;;;;;5074909;28;20032;-83
2022/09/12 00:53:50;;;;;;;14.35;8.70;;;435.30;2355.20;;;;;;5056809;28;20036;-83
2022/09/12 00:56:17;;;;;;;16.85;9.52;;;410.00;2355.20;;;;;;5049890;28;20036;-84
2022/09/12 00:59:01;;;;;;;12.45;10.50;;;410.10;2355.20;;;;;;5049266;28;20492;-84
2022/09/12 01:01:27;;;;;;;22.10;13.10;;;410.10;2355.20;;;;;;5059261;28;20032;-84
2022/09/12 01:03:53;;;;;;;21.92;14.90;;;410.20;2355.20;;;;;;5041134;28;20115;-83
2022/09/12 01:06:35;;;;;;;19.83;15.10;;;410.20;2355.20;;;;;;5049712;28;20112;-84
2022/09/12 01:09:03;;;;;;;23.17;15.77;;;410.20;2355.20;;;;;;5072088;28;20029;-82
2022/09/12 01:11:33;;;;;;;20.95;15.90;;;410.10;2355.20;;;;;;5041418;28;20028;-83
2022/09/12 01:13:59;;;;;;;18.85;14.90;;;410.20;2355.20;;;;;;5035933;28;20395;-82
2022/09/12 01:16:24;;;;;;;20.23;15.27;;;410.20;2355.20;;;;;;5041865;28;20035;-84
2022/09/12 01:19:10;;;;;;;18.80;13.70;;;410.00;2355.20;;;;;;5050053;28;20071;-83
2022/09/12 01:21:43;;;;;;;16.58;11.52;;;410.00;2355.20;;;;;;5082182;28;20028;-83
2022/09/12 01:24:43;;;;;;;16.23;12.48;;;410.00;2355.20;;;;;;5048488;28;20033;-83
2022/09/12 01:27:25;;;;;;;19.85;13.70;;;410.00;2355.20;;;;;;5043706;28;20060;-81
2022/09/12 01:30:04;;;;;;;16.80;12.60;;;384.90;2329.60;;;;;;5040799;28;20033;-84
2022/09/12 01:32:50;;;;;;;20.73;14.23;;;409.60;2048.00;;;;;;5061063;28;20366;-82
2022/09/12 01:35:23;;;;;;;17.38;11.43;;;384.80;2329.60;;;;;;5060567;28;20037;-82
2022/09/12 01:38:27;;;;;;;16.85;11.75;;;409.60;2355.20;;;;;;5042652;28;20053;-81
2022/09/12 01:41:17;;;;;;;16.33;13.10;;;409.70;2355.20;;;;;;5035882;28;20032;-82
2022/09/12 01:44:06;;;;;;;14.73;12.07;;;409.80;2355.20;;;;;;5077632;28;20025;-82
2022/09/12 01:47:07;;;;;;;15.95;12.15;;;409.90;2304.00;;;;;;5046686;28;20124;-81
2022/09/12 01:49:49;;;;;;;18.33;12.50;;;409.90;2355.20;;;;;;4999802;28;20135;-81
2022/09/12 01:52:33;;;;;;;15.90;12.17;;;409.70;2355.20;;;;;;5048431;28;20028;-82
2022/09/12 01:55:29;;;;;;;16.00;12.10;;;409.70;2355.20;;;;;;5049409;28;20036;-83
2022/09/12 01:58:29;;;;;;;16.70;12.90;;;409.80;2355.20;;;;;;5061948;28;20028;-83
2022/09/12 02:01:08;;;;;;;16.65;11.50;;;409.60;2355.20;;;;;;5041222;28;20029;-83
2022/09/12 02:03:43;;;;;;;16.48;12.32;;;409.70;2355.20;;;;;;5042239;28;20062;-82
2022/09/12 02:06:29;;;;;;;19.45;12.73;;;409.70;2355.20;;;;;;5043407;28;20056;-82
2022/09/12 02:09:09;;;;;;;14.50;12.30;;;409.90;2355.20;;;;;;5045530;28;20428;-82
2022/09/12 02:11:40;;;;;;;16.25;12.52;;;409.80;2355.20;;;;;;5044451;28;20356;-82
2022/09/12 02:14:16;;;;;;;20.10;12.75;;;409.70;2355.20;;;;;;5073514;28;20029;-82
2022/09/12 02:16:47;;;;;;;17.05;13.18;;;409.70;2099.20;;;;;;5048460;28;20028;-82
2022/09/12 02:19:20;;;;;;;17.13;11.50;;;409.60;2355.20;;;;;;5049458;28;20029;-82
2022/09/12 02:21:56;;;;;;;12.20;10.90;;;409.80;2355.20;;;;;;5083630;28;20032;-82
2022/09/12 02:24:28;;;;;;;17.92;11.85;;;409.90;2176.00;;;;;;5055147;28;20589;-83
2022/09/12 02:27:02;;;;;;;17.90;12.27;;;409.60;2355.20;;;;;;5043232;28;20108;-83
2022/09/12 02:29:29;;;;;;;16.08;10.65;;;384.80;2329.60;;;;;;5074683;28;20305;-84
2022/09/12 02:32:22;;;;;;;16.52;10.68;;;409.70;2355.20;;;;;;5048139;28;20029;-83
2022/09/12 02:35:07;;;;;;;17.25;12.68;;;409.80;2355.20;;;;;;5046208;28;20506;-83
2022/09/12 02:37:49;;;;;;;20.23;14.10;;;384.80;2329.60;;;;;;5052255;28;20064;-84
2022/09/12 02:40:15;;;;;;;21.02;14.50;;;384.90;2329.60;;;;;;5044481;28;20086;-82
2022/09/12 02:42:41;;;;;;;21.55;15.30;;;409.60;2355.20;;;;;;5046383;28;20028;-84
2022/09/12 02:45:08;;;;;;;22.88;15.85;;;384.70;2329.60;;;;;;5041197;28;20063;-83
2022/09/12 02:47:49;;;;;;;21.88;14.55;;;384.70;2329.60;;;;;;5047342;28;20032;-84
2022/09/12 02:50:15;;;;;;;24.17;15.32;;;384.60;2329.60;;;;;;5047343;28;20029;-83
2022/09/12 02:52:42;;;;;;;16.92;13.73;;;384.60;2329.60;;;;;;5045677;28;20033;-83
2022/09/12 02:55:12;;;;;;;17.70;13.52;;;384.90;2329.60;;;;;;5035291;28;20114;-82
2022/09/12 02:57:38;;;;;;;19.33;13.77;;;409.70;2355.20;;;;;;5041878;28;20090;-82
2022/09/12 03:00:05;;;;;;;22.13;14.88;;;384.90;2329.60;;;;;;5051943;28;20512;-84
2022/09/12 03:03:04;;;;;;;20.25;15.82;;;384.60;2329.60;;;;;;5054124;28;20034;-84
2022/09/12 03:05:56;;;;;;;21.67;15.65;;;384.60;2329.60;;;;;;5053254;28;20075;-83
2022/09/12 03:08:36;;;;;;;16.88;13.73;;;384.80;2329.60;;;;;;5055091;28;20032;-84
2022/09/12 03:11:14;;;;;;;17.95;14.27;;;384.90;2329.60;;;;;;5047267;28;20036;-84
2022/09/12 03:14:19;;;;;;;23.13;13.48;;;409.60;2355.20;;;;;;5054696;28;20036;-84
2022/09/12 03:17:13;;;;;;;19.27;13.88;;;409.70;2355.20;;;;;;5048552;28;20040;-83
2022/09/12 03:20:02;;;;;;;16.77;13.48;;;409.60;2355.20;;;;;;5043530;28;20063;-83
2022/09/12 03:22:38;;;;;;;16.88;13.80;;;409.70;2355.20;;;;;;5066252;28;20474;-83
2022/09/12 03:25:04;;;;;;;21.27;14.68;;;410.00;2355.20;;;;;;5061854;28;20028;-83
2022/09/12 03:27:39;;;;;;;19.15;16.95;;;409.70;2355.20;;;;;;5051557;28;20470;-82
2022/09/12 03:30:07;;;;;;;19.35;17.23;;;384.80;2329.60;;;;;;5052291;28;20024;-82
2022/09/12 03:32:59;;;;;;;25.30;17.55;;;409.60;2355.20;;;;;;5046932;28;20504;-83
2022/09/12 03:35:25;;;;;;;18.63;14.00;;;409.70;2355.20;;;;;;5049508;28;20444;-83
2022/09/12 03:37:51;;;;;;;20.35;15.88;;;409.90;2355.20;;;;;;5050807;28;20053;-84
2022/09/12 03:40:19;;;;;;;19.13;16.02;;;384.90;2329.60;;;;;;5083096;28;20041;-83
2022/09/12 03:42:45;;;;;;;20.15;15.48;;;410.00;1971.20;;;;;;5092814;28;20036;-83
2022/09/12 03:45:11;;;;;;;21.20;16.80;;;409.80;2355.20;;;;;;5062297;28;20040;-83
2022/09/12 03:47:37;;;;;;;23.42;17.77;;;410.00;2355.20;;;;;;5050565;28;20037;-84
2022/09/12 03:50:04;;;;;;;25.23;16.75;;;409.90;1996.80;;;;;;5048667;28;20024;-84
2022/09/12 03:52:30;;;;;;;23.83;17.08;;;384.80;2329.60;;;;;;5044128;28;20035;-83
2022/09/12 03:54:55;;;;;;;18.88;16.85;;;384.90;2329.60;;;;;;5050307;28;20031;-84
2022/09/12 03:57:21;;;;;;;18.00;14.70;;;384.70;2329.60;;;;;;5043432;28;20085;-83
2022/09/12 03:59:49;;;;;;;20.77;15.98;;;384.90;2329.60;;;;;;5081352;28;20029;-83
2022/09/12 04:02:15;;;;;;;20.80;14.82;;;409.60;2355.20;;;;;;5046349;28;20025;-83
2022/09/12 04:04:47;;;;;;;19.98;16.08;;;409.80;2355.20;;;;;;5048666;28;20051;-83
2022/09/12 04:07:14;;;;;;;15.45;13.77;;;410.00;2278.40;;;;;;5050692;28;20029;-83
2022/09/12 04:09:39;;;;;;;15.10;13.50;;;409.80;2355.20;;;;;;5047375;28;20482;-83
2022/09/12 04:12:05;;;;;;;18.38;13.90;;;409.80;2355.20;;;;;;5080640;28;20048;-82
2022/09/12 04:14:31;;;;;;;21.05;14.13;;;409.80;2355.20;;;;;;5085472;28;20047;-83
2022/09/12 04:16:57;;;;;;;21.65;15.32;;;409.90;2355.20;;;;;;5048723;28;20024;-83
2022/09/12 04:19:24;;;;;;;17.48;13.07;;;409.60;2355.20;;;;;;5045824;28;20035;-83
2022/09/12 04:21:49;;;;;;;15.90;13.68;;;409.60;2355.20;;;;;;5047515;28;20025;-83
2022/09/12 04:24:15;;;;;;;16.10;12.98;;;409.70;2355.20;;;;;;5051879;28;20035;-83
2022/09/12 04:26:41;;;;;;;21.48;13.20;;;409.60;2355.20;;;;;;5056700;28;20031;-84
2022/09/12 04:29:10;;;;;;;19.85;13.50;;;409.70;2355.20;;;;;;5088167;28;20584;-83
2022/09/12 04:31:36;;;;;;;15.35;12.68;;;409.80;2355.20;;;;;;5057314;28;20028;-83
2022/09/12 04:34:02;;;;;;;14.77;13.18;;;409.60;2355.20;;;;;;5074567;28;20025;-83
2022/09/12 04:36:28;;;;;;;18.45;12.98;;;409.70;2355.20;;;;;;5050990;28;20114;-84
2022/09/12 04:38:55;;;;;;;16.63;12.73;;;409.90;2355.20;;;;;;5050781;28;20049;-83
2022/09/12 04:41:27;;;;;;;17.52;13.63;;;410.00;2355.20;;;;;;5075433;28;20569;-83
2022/09/12 04:44:06;;;;;;;17.83;12.95;;;410.00;2355.20;;;;;;5040663;28;20091;-84
2022/09/12 04:46:34;;;;;;;16.45;13.70;;;410.00;2355.20;;;;;;5052856;28;20470;-84
2022/09/12 04:49:00;;;;;;;15.43;12.00;;;410.00;2355.20;;;;;;5049574;28;20078;-85
2022/09/12 04:51:29;;;;;;;16.67;12.43;;;410.20;2355.20;;;;;;5046839;28;20021;-83
2022/09/12 04:54:01;;;;;;;12.82;9.90;;;410.20;2355.20;;;;;;5047246;28;20028;-83
2022/09/12 04:56:28;;;;;;;15.02;10.15;;;410.20;2355.20;;;;;;5043786;28;20025;-83
2022/09/12 04:58:57;;;;;;;15.23;11.23;;;410.20;2355.20;;;;;;5047378;28;20028;-83
2022/09/12 05:01:23;;;;;;;12.80;8.82;;;410.20;2355.20;;;;;;5059324;28;20036;-82
2022/09/12 05:03:50;;;;;;;9.32;8.15;;;410.10;2355.20;;;;;;5042834;28;20071;-83
2022/09/12 05:06:37;;;;;;;16.88;12.00;;;410.00;2355.20;;;;;;5047606;28;20035;-82
2022/09/12 05:09:04;;;;;;;19.65;13.68;;;410.20;2355.20;;;;;;5039772;28;20029;-82
2022/09/12 05:11:35;;;;;;;20.73;14.88;;;410.20;2355.20;;;;;;5049066;28;20055;-82
2022/09/12 05:14:01;;;;;;;16.35;13.52;;;410.00;2355.20;;;;;;5046071;28;20029;-82
2022/09/12 05:16:30;;;;;;;15.48;12.57;;;409.90;2073.60;;;;;;5078197;28;20047;-82
2022/09/12 05:18:57;;;;;;;17.08;12.52;;;410.00;2355.20;;;;;;5048421;28;20035;-83
2022/09/12 05:21:24;;;;;;;21.50;15.10;;;409.90;2355.20;;;;;;5049248;28;20028;-82
2022/09/12 05:23:55;;;;;;;14.45;12.40;;;410.00;2355.20;;;;;;5043863;28;20044;-82
2022/09/12 05:26:22;;;;;;;19.33;12.60;;;410.00;2355.20;;;;;;5046739;28;20405;-82
2022/09/12 05:28:49;;;;;;;17.50;11.35;;;410.10;2355.20;;;;;;5046441;28;20029;-81
2022/09/12 05:31:20;;;;;;;14.82;11.75;;;410.20;2355.20;;;;;;5047667;28;20032;-83
2022/09/12 05:33:48;;;;;;;16.20;12.60;;;410.00;2355.20;;;;;;5064332;28;20081;-83
2022/09/12 05:36:18;;;;;;;20.73;13.38;;;410.00;2355.20;;;;;;5045409;28;20466;-83
2022/09/12 05:38:45;;;;;;;15.48;12.45;;;410.10;2355.20;;;;;;5046926;28;20087;-82
2022/09/12 05:41:12;;;;;;;20.52;13.35;;;409.90;2355.20;;;;;;5042727;28;20021;-81
2022/09/12 05:43:40;;;;;;;17.67;14.52;;;409.90;2355.20;;;;;;5042810;28;20036;-82
2022/09/12 05:46:13;;;;;;;19.92;13.70;;;409.70;2355.20;;;;;;5043071;28;20068;-83
2022/09/12 05:48:41;;;;;;;16.55;13.10;;;409.70;2355.20;;;;;;5073338;28;20021;-83
2022/09/12 05:51:09;;;;;;;16.50;13.20;;;409.90;2355.20;;;;;;5054017;28;20115;-82
2022/09/12 05:53:37;;;;;;;19.02;13.80;;;410.00;2355.20;;;;;;5055295;28;20035;-83
2022/09/12 05:56:03;;;;;;;18.17;12.40;;;410.00;2355.20;;;;;;5055500;28;20174;-83
2022/09/12 05:58:29;;;;;;;18.92;12.95;;;410.10;2355.20;;;;;;5052064;28;20119;-82
2022/09/12 06:00:56;;;;;;;15.98;12.70;;;410.20;2355.20;;;;;;5048138;28;20098;-83
2022/09/12 06:03:22;;;;;;;14.63;11.82;;;410.20;2304.00;;;;;;5047108;28;20036;-83
2022/09/12 06:05:47;;;;;;;15.90;12.40;;;410.30;2355.20;;;;;;5045216;28;20386;-82
2022/09/12 06:08:13;;;;;;;16.40;12.40;;;410.30;2355.20;;;;;;5067820;28;20107;-83
2022/09/12 06:10:39;;;;;;;22.35;14.43;;;410.50;2355.20;;;;;;5055986;28;20044;-82
2022/09/12 06:13:05;;;;;;;14.52;13.05;;;435.20;2355.20;;;;;;5044620;28;20423;-82
2022/09/12 06:15:31;;;;;;;16.42;11.70;;;410.50;2176.00;;;;;;5087335;28;20429;-82
2022/09/12 06:17:57;;;;;;;13.75;10.50;;;435.20;2355.20;;;;;;5052977;28;20485;-83
2022/09/12 06:20:23;;;;;;;11.90;9.57;;;435.30;2355.20;;;;;;5047027;28;20025;-82
2022/09/12 06:22:52;;;;;;;12.07;8.95;;;435.40;2355.20;;;;;;5044082;28;20124;-82
2022/09/12 06:25:18;;;;;;;16.88;9.88;;;435.30;2355.20;;;;;;5059597;28;20029;-82
2022/09/12 06:27:46;;;;;;;12.05;9.18;;;435.30;2355.20;;;;;;5046529;28;20049;-84
2022/09/12 06:30:12;;;;;;;11.45;7.80;;;435.40;2355.20;;;;;;5061836;28;20131;-84
2022/09/12 06:32:38;;;;;;;12.93;8.60;;;435.50;2355.20;;;;;;5041691;28;20028;-84
2022/09/12 06:35:04;;;;;;;9.48;7.60;;;435.60;2355.20;;;;;;5053827;28;20031;-83
2022/09/12 06:37:31;;;;;;;10.55;7.28;;;435.60;2355.20;;;;;;5058333;28;20036;-83
2022/09/12 06:39:57;;;;;;;10.70;7.50;;;435.60;2355.20;;;;;;5087427;28;20035;-82
2022/09/12 06:42:23;;;;;;;8.70;7.03;;;435.90;2355.20;;;;;;5049009;28;20051;-85
2022/09/12 06:44:49;;;;;;;7.88;7.03;;;435.70;2355.20;;;;;;5046045;28;20036;-84
2022/09/12 06:47:15;;;;;;;11.90;6.65;;;435.70;2355.20;;;;;;5066485;28;20025;-82
2022/09/12 06:49:40;;;;;;;7.93;6.75;;;435.70;2355.20;;;;;;5053538;28;20027;-84
2022/09/12 06:52:06;;;;;;;7.97;6.93;;;435.80;2355.20;;;;;;5073994;28;20104;-84
2022/09/12 06:54:32;;;;;;;8.25;6.28;;;435.90;2355.20;;;;;;5061203;28;20032;-81
2022/09/12 06:56:58;;;;;;;9.88;7.18;;;435.80;2355.20;;;;;;5052009;28;20021;-81
2022/09/12 06:59:24;;;;;;;8.93;6.53;;;435.80;2355.20;;;;;;5045186;28;20367;-83
2022/09/12 07:01:49;;;;;;;8.43;6.57;;;435.80;2355.20;;;;;;5065034;28;20021;-85
2022/09/12 07:04:15;;;;;;;11.35;6.60;;;435.80;2355.20;;;;;;5045880;28;20112;-83
2022/09/12 07:06:43;;;;;;;8.27;6.25;;;435.80;2355.20;;;;;;5039065;28;20075;-83
2022/09/12 07:09:12;;;;;;;7.25;6.00;;;435.80;2355.20;;;;;;5050046;28;20107;-83
2022/09/12 07:11:39;;;;;;;8.18;6.72;;;435.80;2355.20;;;;;;5045676;28;20540;-83
2022/09/12 07:14:08;;;;;;;8.07;6.60;;;435.80;2355.20;;;;;;5045442;28;20035;-81
2022/09/12 07:16:36;;;;;;;7.60;5.63;;;435.90;2355.20;;;;;;5051960;28;20040;-82
2022/09/12 07:19:04;;;;;;;7.32;5.72;;;435.90;2355.20;;;;;;5046383;28;20024;-82
2022/09/12 07:21:30;;;;;;;8.75;5.80;;;436.00;2355.20;;;;;;5042845;28;20496;-83
2022/09/12 07:23:56;;;;;;;8.50;6.32;;;436.00;2355.20;;;;;;5043607;28;20040;-82
2022/09/12 07:26:23;;;;;;;6.78;5.53;;;436.00;2355.20;;;;;;5044253;28;20029;-82
2022/09/12 07:28:52;;;;;;;7.47;6.03;;;436.10;2355.20;;;;;;5048613;28;20027;-81
2022/09/12 07:31:22;;;;;;;8.35;5.95;;;435.80;2355.20;;;;;;5050720;28;20032;-83
2022/09/12 07:33:49;;;;;;;9.40;6.22;;;436.10;2355.20;;;;;;5067130;28;20029;-84
2022/09/12 07:36:17;;;;;;;6.53;5.75;;;436.10;2355.20;;;;;;5081817;28;20041;-83
2022/09/12 07:38:45;;;;;;;8.88;5.60;;;436.10;2355.20;;;;;;5050018;28;20152;-83
2022/09/12 07:41:19;;;;;;;7.35;5.72;;;460.80;2380.80;;;;;;5051027;28;20374;-82
2022/09/12 07:43:46;;;;;;;6.65;5.75;;;460.80;2380.80;;;;;;5053373;28;20124;-83
2022/09/12 07:46:13;;;;;;;7.20;6.20;;;460.90;2380.80;;;;;;5041108;28;20029;-80
2022/09/12 07:48:39;;;;;;;6.45;4.95;;;461.00;2380.80;;;;;;5049609;28;20498;-81
2022/09/12 07:51:07;;;;;;;11.40;5.90;;;461.00;2380.80;;;;;;5045338;28;20424;-83
2022/09/12 07:53:42;;;;;;;6.13;5.22;;;461.10;2380.80;;;;;;5043872;28;20033;-83
2022/09/12 07:56:10;;;;;;;7.45;5.00;;;461.10;2380.80;;;;;;5045957;28;20024;-85
2022/09/12 07:58:36;;;;;;;7.03;5.60;;;461.10;2380.80;;;;;;5048598;28;20024;-84
2022/09/12 08:01:17;;;;;;;6.75;5.18;;;461.20;2380.80;;;;;;5045638;28;20036;-84
2022/09/12 08:03:46;;;;;;;8.15;5.53;;;461.20;2380.80;;;;;;5043459;28;20037;-84
2022/09/12 08:06:15;;;;;;;6.10;5.18;;;461.20;2380.80;;;;;;5049137;28;20043;-82
2022/09/12 08:08:41;;;;;;;8.20;5.28;;;461.30;2380.80;;;;;;5064680;28;20386;-83
2022/09/12 08:11:14;;;;;;;7.05;6.13;;;461.30;2380.80;;;;;;5049931;28;20029;-85
2022/09/12 08:13:41;;;;;;;11.40;6.07;;;461.40;2380.80;;;;;;5049272;28;20025;-84
2022/09/12 08:16:12;;;;;;;6.95;5.53;;;461.50;2380.80;;;;;;5048814;28;20039;-84
2022/09/12 08:18:39;;;;;;;12.02;6.72;;;461.50;2380.80;;;;;;5062376;28;20017;-83
2022/09/12 08:21:07;;;;;;;5.82;5.10;;;461.70;2380.80;;;;;;5037928;28;20031;-82
2022/09/12 08:23:33;;;;;;;8.82;5.60;;;461.60;2380.80;;;;;;5037385;28;20090;-85
2022/09/12 08:26:02;;;;;;;8.27;5.32;;;461.70;2380.80;;;;;;5043859;28;20024;-85
2022/09/12 08:28:29;;;;;;;9.48;5.90;;;486.50;2380.80;;;;;;5051885;28;20025;-85
2022/09/12 08:31:00;;;;;;;10.20;5.90;;;486.40;2380.80;;;;;;5042213;28;20029;-84
2022/09/12 08:33:31;;;;;;;13.80;6.35;;;486.40;2380.80;;;;;;5049378;28;20063;-85
2022/09/12 08:36:19;;;;;;;8.98;5.38;;;486.40;2380.80;;;;;;5079155;28;20025;-86
2022/09/12 08:38:46;;;;;;;6.82;5.15;;;486.40;2380.80;;;;;;5083474;28;20048;-85
2022/09/12 08:41:34;;;;;;;8.77;5.32;;;486.40;2380.80;;;;;;5046588;28;20047;-88
2022/09/12 08:44:27;;;;;;;9.52;4.97;;;486.50;2380.80;;;;;;5044519;28;20506;-85
2022/09/12 08:47:18;;;;;;;9.27;5.35;;;486.40;2380.80;;;;;;5049654;28;20028;-86
2022/09/12 08:50:08;;;;;;;12.25;5.47;;;486.70;2380.80;;;;;;5069637;28;20107;-84
2022/09/12 08:53:09;;;;;;;7.93;5.32;;;486.70;2380.80;;;;;;5036686;28;20447;-85
2022/09/12 08:55:41;;;;;;;7.63;4.97;;;486.80;2380.80;;;;;;5037199;28;20025;-83
2022/09/12 08:58:18;;;;;;;;;;;487.00;2380.80;;;;;;5053239;28;20059;-86
2022/09/12 09:01:14;;;;;;;7.15;4.95;;;487.00;2380.80;;;;;;5051670;28;20357;-86
2022/09/12 09:04:13;;;;;;;5.72;4.20;;;487.10;2380.80;;;;;;5049385;28;20072;-87
2022/09/12 09:07:07;;;;;;;6.20;4.53;;;487.20;2380.80;;;;;;5060967;28;20051;-86
2022/09/12 09:10:37;;;;;;;5.18;3.53;;;487.30;2380.80;;;;;;5049972;28;20028;-85
2022/09/12 09:17:19;;;;;;;;;;;;;;;;;;;;;
2022/09/12 09:20:31;;;;;;;7.60;4.97;;;512.30;2380.80;;;;;;5019746;28;20024;-86
2022/09/12 09:23:32;;;;;;;5.03;3.28;;;512.30;2380.80;;;;;;5000087;28;20058;-85
2022/09/12 09:45:59;;;;;;;4.63;2.92;;;512.80;2380.80;;;;;;4944221;28;20525;-82
2022/09/12 09:52:00;;;;;;;6.75;3.33;;;512.90;2380.80;;;;;;5074229;28;20039;-83
2022/09/12 09:55:54;;;;;;;;;;;;;;;;;;;;;
2022/09/12 09:58:40;;;;;;;5.07;2.60;;;512.80;2380.80;;;;;;5077477;28;20028;-85
2022/09/12 10:01:27;;;;;;;4.90;3.30;;;537.60;2406.40;;;;;;5082065;28;20032;-86
2022/09/12 10:04:10;;;;;;;3.75;2.50;;;537.70;2406.40;;;;;;5069075;28;20437;-84
2022/09/12 10:06:39;;;;;;;3.35;2.20;;;537.70;2406.40;;;;;;5062497;28;20025;-85
2022/09/12 10:09:31;;;;;;;6.25;3.10;;;538.00;2406.40;;;;;;5088232;28;20028;-83
2022/09/12 10:35:09;;;;;;;;;;;;;;;;;;;;;
2022/09/12 10:41:17;;;;;;;4.40;3.00;;;;;;;;;;5020014;28;20074;-84
2022/09/12 10:43:53;;;;;;;5.15;2.55;;;;;;;;;;5027269;28;20117;-84
2022/09/12 10:46:19;;;;;;;3.35;2.35;;;;;;;;;;5009802;28;20028;-78
2022/09/12 10:49:17;;;;;;;4.07;2.45;;;;;;;;;;5005609;28;20022;-84
2022/09/12 10:51:43;;;;;;;4.78;2.75;;;;;;;;;;4928579;29;20063;-86
2022/09/12 11:04:03;;;;;;;5.40;3.55;;;;;;;;;;5084859;28;20122;-83
2022/09/12 11:28:26;;;;;;;4.13;2.72;;;;;;;;;;5091723;28;20019;-85
2022/09/12 11:55:06;;;;;;;4.78;2.40;;;564.10;2432.00;;;;;;5086404;28;20036;-85
2022/09/12 12:01:29;;;;;;;5.38;2.58;;;563.90;2432.00;;;;;;5012121;28;20093;-85
2022/09/12 12:03:56;;;;;;;3.85;2.40;;;563.70;2432.00;;;;;;5035465;28;20032;-83
2022/09/12 12:06:33;;;;;;;4.25;2.40;;;563.70;2432.00;;;;;;5067877;28;20035;-82
2022/09/12 12:08:59;;;;;;;4.57;2.38;;;564.00;2432.00;;;;;;5077019;28;20027;-83
2022/09/12 12:11:36;;;;;;;15.73;9.98;;;589.20;2380.80;;;;;;5073795;28;20021;-83
2022/09/12 12:14:21;;;;;;;49.45;31.58;;;589.00;2432.00;;;;;;5065039;28;20063;-83
2022/09/12 12:16:53;;;;;;;9.68;5.78;;;589.30;2380.80;;;;;;5083337;28;20028;-83
2022/09/12 12:19:50;;;;;;;8.88;6.45;;;589.70;2380.80;;;;;;5063277;28;20078;-84
2022/09/12 12:22:52;;;;;;;6.35;2.58;;;589.70;2380.80;;;;;;5057426;28;20028;-84
2022/09/12 12:25:52;;;;;;;3.83;2.70;;;589.50;2329.60;;;;;;5055679;28;20042;-82
2022/09/12 12:28:40;;;;;;;5.68;2.90;;;589.50;2380.80;;;;;;5066709;28;20085;-82
2022/09/12 12:31:32;;;;;;;4.60;2.45;;;589.50;2406.40;;;;;;5075522;28;20024;-83
2022/09/12 12:34:26;;;;;;;4.90;2.50;;;589.50;2380.80;;;;;;5073565;28;20032;-82
2022/09/12 12:36:56;;;;;;;8.00;2.63;;;589.20;2432.00;;;;;;5077042;28;20261;-82
2022/09/12 12:39:31;;;;;;;7.13;4.90;;;589.10;2380.80;;;;;;5068275;28;20051;-83
2022/09/12 12:41:57;;;;;;;4.10;2.83;;;589.00;2380.80;;;;;;5064059;28;20044;-84
2022/09/12 12:44:47;;;;;;;3.30;2.10;;;614.40;2329.60;;;;;;5059665;28;20036;-85
2022/09/12 12:47:21;;;;;;;3.60;2.25;;;589.70;2304.00;;;;;;5097658;28;20359;-84
2022/09/12 12:49:54;;;;;;;6.13;3.10;;;589.50;2252.80;;;;;;5068591;28;20016;-85
2022/09/12 12:52:20;;;;;;;5.47;3.25;;;615.00;2278.40;;;;;;5066773;28;20722;-84
2022/09/12 12:54:48;;;;;;;8.00;4.55;;;640.20;2201.60;;;;;;5079603;28;20032;-84
2022/09/12 12:57:18;;;;;;;4.10;2.25;;;640.10;2150.40;;;;;;5068572;28;20111;-85
2022/09/12 12:59:47;;;;;;;6.07;2.40;;;615.20;2176.00;;;;;;5065377;28;20470;-84
2022/09/12 13:02:23;;;;;;;6.20;3.20;;;640.60;2099.20;;;;;;5062137;28;20051;-84
2022/09/12 13:04:56;;;;;;;5.28;2.95;;;;;;;;;;5065985;28;20075;-82
2022/09/12 13:07:57;;;;;;;5.00;2.25;;;640.10;2048.00;;;;;;5065830;28;20051;-86
2022/09/12 13:10:39;;;;;;;4.57;2.65;;;640.10;2048.00;;;;;;5016375;28;20064;-85
2022/09/12 13:13:17;;;;;;;7.63;2.88;;;640.20;2048.00;;;;;;5057185;28;20083;-86
2022/09/12 13:19:32;;;;;;;3.65;2.03;;;666.30;2073.60;;;;;;5057441;28;20032;-83
2022/09/12 13:22:15;;;;;;;5.43;2.45;;;691.30;1971.20;;;;;;5079678;28;20089;-83
2022/09/12 13:25:01;;;;;;;3.42;1.63;;;;;;;;;;5101934;28;20044;-84
2022/09/12 13:27:27;;;;;;;4.82;3.03;;;;;;;;;;5057613;28;20029;-85
2022/09/12 13:30:25;;;;;;;4.53;2.17;;;;;;;;;;5057908;28;20025;-84
2022/09/12 13:32:52;;;;;;;5.63;2.25;;;;;;;;;;5058455;28;20052;-86
2022/09/12 13:35:44;;;;;;;3.00;1.80;;;;;;;;;;5061884;28;20111;-85
2022/09/12 13:38:29;;;;;;;4.15;1.73;;;;;;;;;;5056042;28;20029;-84
2022/09/12 13:41:04;;;;;;;3.03;1.70;;;;;;;;;;5095084;28;20056;-85
2022/09/12 13:43:45;;;;;;;3.50;1.90;;;666.00;1996.80;;;;;;5055582;28;20032;-84
2022/09/12 13:46:26;;;;;;;3.80;2.00;;;640.90;2022.40;;;;;;5061408;28;20020;-84
2022/09/12 13:48:52;;;;;;;3.80;2.28;;;665.60;2048.00;;;;;;5094211;28;20055;-84
2022/09/12 13:51:46;;;;;;;4.13;2.20;;;665.60;2048.00;;;;;;5059668;28;20021;-84
2022/09/12 13:54:18;;;;;;;4.97;3.25;;;640.60;2022.40;;;;;;5065849;28;20081;-85
2022/09/12 13:56:51;;;;;;;4.67;1.80;;;640.30;2048.00;;;;;;5055361;28;20420;-85
2022/09/12 13:59:19;;;;;;;4.40;2.33;;;640.30;1996.80;;;;;;5058112;28;20272;-85
2022/09/12 14:02:04;;;;;;;4.65;2.65;;;640.90;2022.40;;;;;;5063461;28;20462;-84
2022/09/12 14:05:07;;;;;;;4.50;2.70;;;665.60;2022.40;;;;;;5095149;28;20040;-85
2022/09/12 14:11:17;;;;;;;6.72;4.68;;;691.20;1945.60;;;;;;5004938;28;20033;-83
2022/09/12 14:13:47;;;;;;;6.57;4.68;;;691.90;1971.20;;;;;;5012371;28;20033;-83
2022/09/12 14:16:20;;;;;;;3.90;2.35;;;691.60;2022.40;;;;;;5064031;28;20028;-82
2022/09/12 14:19:06;;;;;;;5.70;2.08;;;666.10;2022.40;;;;;;5091745;28;20043;-83
2022/09/12 14:21:35;;;;;;;8.38;5.07;;;640.60;2022.40;;;;;;5060434;28;20029;-84
2022/09/12 14:24:24;;;;;;;7.80;5.43;;;640.20;2150.40;;;;;;5059492;28;20063;-83
2022/09/12 14:27:34;;;;;;;12.00;9.82;;;640.00;2099.20;;;;;;5063549;28;20091;-83
2022/09/12 14:30:26;;;;;;;8.77;7.45;;;615.10;2150.40;;;;;;5050985;28;20033;-85
2022/09/12 14:33:13;;;;;;;6.10;4.20;;;614.80;2227.20;;;;;;5058499;28;20044;-84
2022/09/12 14:36:06;;;;;;;7.22;2.85;;;614.70;2201.60;;;;;;5067618;28;20082;-85
2022/09/12 14:38:37;;;;;;;4.45;2.38;;;;;;;;;;5062468;28;20106;-85
2022/09/12 14:41:06;;;;;;;4.00;2.58;;;;;;;;;;5063333;28;20452;-85
2022/09/12 14:43:44;;;;;;;4.53;2.72;;;640.30;2252.80;;;;;;5059973;28;20032;-84
2022/09/12 14:46:21;;;;;;;5.55;2.35;;;640.50;2176.00;;;;;;5065950;28;20028;-84
2022/09/12 14:48:53;;;;;;;7.22;3.35;;;665.60;2150.40;;;;;;5061152;28;20032;-83
2022/09/12 14:51:29;;;;;;;5.93;2.70;;;666.00;2099.20;;;;;;5075262;28;20025;-84
2022/09/12 14:53:57;;;;;;;6.25;4.45;;;640.50;2099.20;;;;;;5060780;28;20055;-85
2022/09/12 14:56:51;;;;;;;4.85;2.50;;;640.10;2124.80;;;;;;5066802;28;20048;-86